createdAt,value
2019-05-23T00:00:49.521Z,13.60
2019-05-23T00:03:22.120Z,13.70
2019-05-23T00:05:59.167Z,13.60
2019-05-23T00:08:30.159Z,13.60
2019-05-23T00:11:06.735Z,13.60
2019-05-23T00:13:45.725Z,13.60
2019-05-23T00:16:18.051Z,13.60
2019-05-23T00:18:49.178Z,13.60
2019-05-23T00:21:20.047Z,13.60
2019-05-23T00:23:50.789Z,13.60
2019-05-23T00:26:22.133Z,13.60
2019-05-23T00:29:09.057Z,13.50
2019-05-23T00:31:35.722Z,13.50
2019-05-23T00:34:06.942Z,13.50
2019-05-23T00:36:38.090Z,13.50
2019-05-23T00:39:12.129Z,13.50
2019-05-23T00:41:42.958Z,13.50
2019-05-23T00:44:13.160Z,13.60
2019-05-23T00:46:44.152Z,13.60
2019-05-23T00:49:16.036Z,13.60
2019-05-23T00:51:46.434Z,13.50
2019-05-23T00:54:17.096Z,13.50
2019-05-23T00:56:47.387Z,13.50
2019-05-23T00:59:26.675Z,13.50
2019-05-23T01:01:49.448Z,13.50
2019-05-23T01:04:19.122Z,13.40
2019-05-23T01:06:49.458Z,13.40
2019-05-23T01:09:19.571Z,13.40
2019-05-23T01:11:50.072Z,13.40
2019-05-23T01:14:20.358Z,13.40
2019-05-23T01:16:51.177Z,13.40
2019-05-23T01:19:21.294Z,13.40
2019-05-23T01:22:02.040Z,13.40
2019-05-23T01:24:36.324Z,13.30
2019-05-23T01:27:07.457Z,13.30
2019-05-23T01:30:02.708Z,13.30
2019-05-23T01:32:40.496Z,13.30
2019-05-23T01:35:11.083Z,13.30
2019-05-23T01:37:41.182Z,13.20
2019-05-23T01:40:13.652Z,13.30
2019-05-23T01:42:43.760Z,13.20
2019-05-23T01:45:16.545Z,13.20
2019-05-23T01:47:47.841Z,13.10
2019-05-23T01:50:20.678Z,13.10
2019-05-23T01:52:51.862Z,13.10
2019-05-23T01:55:22.324Z,13.10
2019-05-23T01:57:52.434Z,13.00
2019-05-23T02:00:24.806Z,13.00
2019-05-23T02:02:54.770Z,12.90
2019-05-23T02:05:26.130Z,12.90
2019-05-23T02:07:56.823Z,12.90
2019-05-23T02:10:27.110Z,12.80
2019-05-23T02:12:57.810Z,12.80
2019-05-23T02:15:28.592Z,12.80
2019-05-23T02:17:58.521Z,12.80
2019-05-23T02:20:28.804Z,12.70
2019-05-23T02:22:58.700Z,12.60
2019-05-23T02:25:29.142Z,12.60
2019-05-23T02:27:59.608Z,12.60
2019-05-23T02:30:34.727Z,12.60
2019-05-23T02:33:02.668Z,12.60
2019-05-23T02:35:33.374Z,12.60
2019-05-23T02:38:22.170Z,12.50
2019-05-23T02:41:03.267Z,12.50
2019-05-23T02:43:33.658Z,12.50
2019-05-23T02:46:07.946Z,12.40
2019-05-23T02:48:43.066Z,12.30
2019-05-23T02:51:19.487Z,12.30
2019-05-23T02:53:53.942Z,12.30
2019-05-23T02:56:24.025Z,12.30
2019-05-23T02:59:07.951Z,12.30
2019-05-23T03:02:13.933Z,12.30
2019-05-23T03:04:45.003Z,12.30
2019-05-23T03:07:18.173Z,12.30
2019-05-23T03:09:48.433Z,12.30
2019-05-23T03:12:18.157Z,12.30
2019-05-23T03:14:48.963Z,12.30
2019-05-23T03:17:20.696Z,12.20
2019-05-23T03:19:57.912Z,12.20
2019-05-23T03:22:36.999Z,12.20
2019-05-23T03:25:16.602Z,12.20
2019-05-23T03:27:48.042Z,12.20
2019-05-23T03:30:25.477Z,12.20
2019-05-23T03:32:59.432Z,12.10
2019-05-23T03:35:43.439Z,12.10
2019-05-23T03:38:13.914Z,12.10
2019-05-23T03:40:43.452Z,12.10
2019-05-23T03:43:13.312Z,12.10
2019-05-23T03:45:50.500Z,12.10
2019-05-23T03:48:21.591Z,12.00
2019-05-23T03:50:52.171Z,12.00
2019-05-23T03:53:24.035Z,11.90
2019-05-23T03:55:54.565Z,11.90
2019-05-23T03:58:25.471Z,11.90
2019-05-23T04:00:57.293Z,11.90
2019-05-23T04:03:27.548Z,11.90
2019-05-23T04:05:58.838Z,11.90
2019-05-23T04:08:29.224Z,11.90
2019-05-23T04:11:00.574Z,11.90
2019-05-23T04:13:30.223Z,11.90
2019-05-23T04:16:00.022Z,11.90
2019-05-23T04:18:29.941Z,11.90
2019-05-23T04:21:00.030Z,11.90
2019-05-23T04:23:30.163Z,11.90
2019-05-23T04:26:00.230Z,11.90
2019-05-23T04:28:29.923Z,11.90
2019-05-23T04:31:01.240Z,11.90
2019-05-23T04:33:31.418Z,11.90
2019-05-23T04:36:01.101Z,12.00
2019-05-23T04:38:30.821Z,12.00
2019-05-23T04:41:00.824Z,11.90
2019-05-23T04:43:30.619Z,11.90
2019-05-23T04:46:01.211Z,12.00
2019-05-23T04:48:30.869Z,12.00
2019-05-23T04:51:01.344Z,12.00
2019-05-23T04:53:31.717Z,12.10
2019-05-23T04:56:03.176Z,12.10
2019-05-23T04:58:33.128Z,12.20
2019-05-23T05:01:03.682Z,12.30
2019-05-23T05:03:33.739Z,12.30
2019-05-23T05:06:04.649Z,12.40
2019-05-23T05:08:34.799Z,12.40
2019-05-23T05:11:04.534Z,12.50
2019-05-23T05:13:34.450Z,12.50
2019-05-23T05:16:04.922Z,12.50
2019-05-23T05:18:35.110Z,12.60
2019-05-23T05:21:05.021Z,12.60
2019-05-23T05:23:34.827Z,12.70
2019-05-23T05:26:06.226Z,12.80
2019-05-23T05:28:37.910Z,12.80
2019-05-23T05:31:07.850Z,12.90
2019-05-23T05:33:37.691Z,12.90
2019-05-23T05:36:07.619Z,13.00
2019-05-23T05:38:38.061Z,13.00
2019-05-23T05:41:08.434Z,13.10
2019-05-23T05:43:39.133Z,13.20
2019-05-23T05:46:08.966Z,13.30
2019-05-23T05:48:41.752Z,13.30
2019-05-23T05:51:11.682Z,13.40
2019-05-23T05:53:41.927Z,13.50
2019-05-23T05:56:11.866Z,13.60
2019-05-23T05:58:41.473Z,13.70
2019-05-23T06:01:13.614Z,13.70
2019-05-23T06:03:43.522Z,13.80
2019-05-23T06:06:38.867Z,13.90
2019-05-23T06:09:17.192Z,14.00
2019-05-23T06:11:47.159Z,14.10
2019-05-23T06:14:17.138Z,14.20
2019-05-23T06:16:46.975Z,14.20
2019-05-23T06:19:17.459Z,14.30
2019-05-23T06:21:47.525Z,14.40
2019-05-23T06:24:17.208Z,14.50
2019-05-23T06:26:47.397Z,14.50
2019-05-23T06:29:17.070Z,14.60
2019-05-23T06:31:46.829Z,14.70
2019-05-23T06:34:17.256Z,14.80
2019-05-23T06:36:47.083Z,15.00
2019-05-23T06:39:17.254Z,15.10
2019-05-23T06:41:47.331Z,15.20
2019-05-23T06:44:17.389Z,15.30
2019-05-23T06:46:47.579Z,15.40
2019-05-23T06:49:17.715Z,15.50
2019-05-23T06:51:47.602Z,15.50
2019-05-23T06:54:17.259Z,15.60
2019-05-23T06:56:47.559Z,15.70
2019-05-23T06:59:17.481Z,15.70
2019-05-23T07:01:47.076Z,15.80
2019-05-23T07:04:17.625Z,15.90
2019-05-23T07:06:47.537Z,15.90
2019-05-23T07:09:19.178Z,15.90
2019-05-23T07:11:49.799Z,16.00
2019-05-23T07:14:19.500Z,16.00
2019-05-23T07:16:50.300Z,16.10
2019-05-23T07:19:21.565Z,16.20
2019-05-23T07:21:51.695Z,16.20
2019-05-23T07:24:21.739Z,16.40
2019-05-23T07:26:52.712Z,16.40
2019-05-23T07:29:22.444Z,16.50
2019-05-23T07:31:52.032Z,16.50
2019-05-23T07:34:24.060Z,16.50
2019-05-23T07:36:56.201Z,16.40
2019-05-23T07:39:25.870Z,16.60
2019-05-23T07:41:55.878Z,16.70
2019-05-23T07:44:25.700Z,16.70
2019-05-23T07:46:55.670Z,16.90
2019-05-23T07:49:25.993Z,16.90
2019-05-23T07:51:55.844Z,17.00
2019-05-23T07:54:36.799Z,17.10
2019-05-23T07:57:10.867Z,17.20
2019-05-23T07:59:40.512Z,17.30
2019-05-23T08:02:19.520Z,17.30
2019-05-23T08:04:50.134Z,17.40
2019-05-23T08:07:21.182Z,17.40
2019-05-23T08:09:50.964Z,17.40
2019-05-23T08:12:21.125Z,17.50
2019-05-23T08:14:50.944Z,17.50
2019-05-23T08:17:21.178Z,17.60
2019-05-23T08:19:51.324Z,17.60
2019-05-23T08:22:21.167Z,17.70
2019-05-23T08:24:52.587Z,17.80
2019-05-23T08:27:22.651Z,17.80
2019-05-23T08:29:52.478Z,17.80
2019-05-23T08:32:30.474Z,17.90
2019-05-23T08:35:00.915Z,18.10
2019-05-23T08:37:30.647Z,18.10
2019-05-23T08:40:00.335Z,18.20
2019-05-23T08:42:30.980Z,18.20
2019-05-23T08:45:00.789Z,18.20
2019-05-23T08:47:31.123Z,18.30
2019-05-23T08:50:01.237Z,18.30
2019-05-23T08:52:41.302Z,18.30
2019-05-23T08:55:22.474Z,18.50
2019-05-23T09:00:25.267Z,18.60
2019-05-23T09:02:58.455Z,18.90
2019-05-23T09:05:28.208Z,19.00
2019-05-23T09:14:07.486Z,18.90
2019-05-23T09:16:37.667Z,19.10
2019-05-23T09:25:16.566Z,19.80
2019-05-23T09:27:47.509Z,20.10
2019-05-23T09:33:17.709Z,20.50
2019-05-23T09:35:48.449Z,20.40
2019-05-23T09:38:18.652Z,20.50
2019-05-23T09:43:21.313Z,20.70
2019-05-23T09:45:51.523Z,21.10
2019-05-23T09:48:21.625Z,21.20
2019-05-23T09:50:51.394Z,21.40
2019-05-23T09:53:40.025Z,21.60
2019-05-23T09:59:28.433Z,21.30
2019-05-23T10:01:59.256Z,21.50
2019-05-23T10:04:29.251Z,21.40
2019-05-23T10:06:58.851Z,21.30
2019-05-23T10:09:28.974Z,21.20
2019-05-23T10:11:58.742Z,21.30
2019-05-23T10:14:31.287Z,21.30
2019-05-23T10:17:01.284Z,21.30
2019-05-23T10:19:31.088Z,21.30
2019-05-23T10:22:00.745Z,21.40
2019-05-23T10:24:51.336Z,21.60
2019-05-23T10:27:21.527Z,21.70
2019-05-23T10:29:51.705Z,21.80
2019-05-23T10:32:21.677Z,22.10
2019-05-23T10:34:51.360Z,22.10
2019-05-23T10:37:21.340Z,22.30
2019-05-23T10:39:54.833Z,22.50
2019-05-23T10:42:27.831Z,22.60
2019-05-23T10:44:58.035Z,22.70
2019-05-23T10:47:27.780Z,22.80
2019-05-23T10:49:58.908Z,22.90
2019-05-23T10:52:30.201Z,22.80
2019-05-23T10:55:00.109Z,22.50
2019-05-23T10:57:30.073Z,22.50
2019-05-23T11:00:02.192Z,22.60
2019-05-23T11:02:34.209Z,22.80
2019-05-23T11:05:12.761Z,23.00
2019-05-23T11:07:35.823Z,23.00
2019-05-23T11:10:26.045Z,22.80
2019-05-23T11:12:56.309Z,22.60
2019-05-23T11:15:44.956Z,22.80
2019-05-23T11:18:15.004Z,23.20
2019-05-23T11:20:47.686Z,23.30
2019-05-23T11:26:05.035Z,23.80
2019-05-23T11:28:36.306Z,24.00
2019-05-23T11:31:09.312Z,24.10
2019-05-23T11:33:38.966Z,24.00
2019-05-23T11:36:35.348Z,23.80
2019-05-23T11:38:59.375Z,23.50
2019-05-23T11:41:31.227Z,23.30
2019-05-23T11:44:01.045Z,23.30
2019-05-23T11:46:33.555Z,23.40
2019-05-23T11:49:03.263Z,23.50
2019-05-23T11:51:34.351Z,23.50
2019-05-23T11:54:08.280Z,23.40
2019-05-23T11:56:37.134Z,23.30
2019-05-23T11:59:07.127Z,23.20
2019-05-23T12:01:57.602Z,23.40
2019-05-23T12:04:35.530Z,23.70
2019-05-23T12:10:06.407Z,24.10
2019-05-23T12:12:36.279Z,24.10
2019-05-23T12:17:58.708Z,23.90
2019-05-23T12:20:28.483Z,23.90
2019-05-23T12:22:58.246Z,24.20
2019-05-23T12:25:33.273Z,24.40
2019-05-23T12:28:03.146Z,24.50
2019-05-23T12:30:32.879Z,24.60
2019-05-23T12:33:14.321Z,24.60
2019-05-23T12:36:02.901Z,24.50
2019-05-23T12:41:50.955Z,24.00
2019-05-23T12:44:21.322Z,24.10
2019-05-23T12:46:52.135Z,23.80
2019-05-23T12:52:26.951Z,23.60
2019-05-23T12:54:57.508Z,23.60
2019-05-23T13:01:04.175Z,23.90
2019-05-23T13:03:34.529Z,24.00
2019-05-23T13:08:55.521Z,24.30
2019-05-23T13:11:44.642Z,24.30
2019-05-23T13:14:14.794Z,24.30
2019-05-23T13:16:44.555Z,24.30
2019-05-23T13:19:14.652Z,24.40
2019-05-23T13:22:04.606Z,24.30
2019-05-23T13:24:51.254Z,24.20
2019-05-23T13:27:06.526Z,24.10
2019-05-23T13:29:36.759Z,23.90
2019-05-23T13:35:27.122Z,24.20
2019-05-23T13:38:08.462Z,24.50
2019-05-23T13:40:52.336Z,24.80
2019-05-23T13:43:34.600Z,24.80
2019-05-23T13:46:14.640Z,24.70
2019-05-23T14:10:38.842Z,24.40
2019-05-23T14:19:17.286Z,24.10
2019-05-23T14:21:47.126Z,24.30
2019-05-23T14:24:17.088Z,24.60
2019-05-23T14:26:54.414Z,24.60
2019-05-23T14:29:43.266Z,24.50
2019-05-23T14:38:30.341Z,24.70
2019-05-23T14:40:49.167Z,24.60
2019-05-23T14:43:22.932Z,24.30
2019-05-23T14:46:02.537Z,24.10
2019-05-23T14:48:57.094Z,24.10
2019-05-23T14:51:47.218Z,24.20
2019-05-23T14:57:27.300Z,24.00
2019-05-23T14:59:57.010Z,24.00
2019-05-23T15:02:28.192Z,23.90
2019-05-23T15:05:18.945Z,24.10
2019-05-23T15:07:48.715Z,24.10
2019-05-23T15:10:19.637Z,24.20
2019-05-23T15:12:49.995Z,24.30
2019-05-23T15:21:50.999Z,24.30
2019-05-23T15:24:21.760Z,24.00
2019-05-23T15:26:53.672Z,24.00
2019-05-23T15:29:23.345Z,23.70
2019-05-23T15:32:02.311Z,23.60
2019-05-23T15:34:27.536Z,23.40
2019-05-23T15:36:57.322Z,23.40
2019-05-23T15:42:06.166Z,23.50
2019-05-23T15:44:35.883Z,23.50
2019-05-23T15:47:05.918Z,23.40
2019-05-23T15:49:37.282Z,23.40
2019-05-23T15:52:16.334Z,23.40
2019-05-23T15:54:59.712Z,23.40
2019-05-23T15:57:48.824Z,23.30
2019-05-23T16:00:38.225Z,23.30
2019-05-23T16:03:31.559Z,23.20
2019-05-23T16:06:03.510Z,23.20
2019-05-23T16:08:33.243Z,23.10
2019-05-23T16:17:32.075Z,23.10
2019-05-23T16:20:21.013Z,23.00
2019-05-23T16:22:50.868Z,22.90
2019-05-23T16:25:21.006Z,22.80
2019-05-23T16:27:53.548Z,22.80
2019-05-23T16:30:23.396Z,22.80
2019-05-23T16:32:53.383Z,22.70
2019-05-23T16:35:23.117Z,22.70
2019-05-23T16:37:52.956Z,22.70
2019-05-23T16:40:23.030Z,22.70
2019-05-23T16:42:52.673Z,22.50
2019-05-23T16:45:22.641Z,22.40
2019-05-23T16:47:52.414Z,22.40
2019-05-23T16:50:22.162Z,22.40
2019-05-23T16:52:52.346Z,22.40
2019-05-23T16:55:32.537Z,22.30
2019-05-23T16:58:08.683Z,22.30
2019-05-23T17:01:03.725Z,22.20
2019-05-23T17:03:43.223Z,22.10
2019-05-23T17:06:21.615Z,22.10
2019-05-23T17:09:08.853Z,22.10
2019-05-23T17:11:53.406Z,22.10
2019-05-23T17:14:31.211Z,22.00
2019-05-23T17:17:38.203Z,22.00
2019-05-23T17:23:35.778Z,22.00
2019-05-23T17:26:14.437Z,21.80
2019-05-23T17:28:47.411Z,21.80
2019-05-23T17:31:18.819Z,21.80
2019-05-23T17:33:49.344Z,21.60
2019-05-23T17:36:31.356Z,21.60
2019-05-23T17:39:01.034Z,21.50
2019-05-23T17:41:30.988Z,21.40
2019-05-23T17:44:00.854Z,21.40
2019-05-23T17:46:30.755Z,21.30
2019-05-23T17:52:02.763Z,21.30
2019-05-23T17:54:32.566Z,21.30
2019-05-23T17:57:02.439Z,21.30
2019-05-23T17:59:52.389Z,21.20
2019-05-23T18:02:22.456Z,21.20
2019-05-23T18:04:55.014Z,21.10
2019-05-23T18:07:43.967Z,21.10
2019-05-23T18:10:43.983Z,21.10
2019-05-23T18:13:05.123Z,21.00
2019-05-23T18:18:44.168Z,20.90
2019-05-23T18:21:14.121Z,20.80
2019-05-23T18:26:53.014Z,20.70
2019-05-23T18:29:42.695Z,20.70
2019-05-23T18:38:11.650Z,20.50
2019-05-23T18:43:23.550Z,20.40
2019-05-23T18:46:09.592Z,20.30
2019-05-23T18:48:29.713Z,20.30
2019-05-23T18:50:59.702Z,20.20
2019-05-23T18:53:29.803Z,20.10
2019-05-23T18:55:59.471Z,20.00
2019-05-23T18:58:29.540Z,20.00
2019-05-23T19:01:20.176Z,19.90
2019-05-23T19:04:08.947Z,19.80
2019-05-23T19:06:58.279Z,19.80
2019-05-23T19:09:28.182Z,19.70
2019-05-23T19:12:16.967Z,19.50
2019-05-23T19:17:57.444Z,19.40
2019-05-23T19:20:46.619Z,19.30
2019-05-23T19:23:16.400Z,19.20
2019-05-23T19:25:46.402Z,19.20
2019-05-23T19:28:16.966Z,19.10
2019-05-23T19:30:46.863Z,19.00
2019-05-23T19:33:16.740Z,19.00
2019-05-23T19:35:47.530Z,18.90
2019-05-23T19:44:32.329Z,18.70
2019-05-23T19:47:22.977Z,18.70
2019-05-23T19:49:40.384Z,18.60
2019-05-23T19:55:09.706Z,18.50
2019-05-23T20:01:08.821Z,18.50
2019-05-23T20:06:29.429Z,18.40
2019-05-23T20:14:55.449Z,18.30
2019-05-23T20:17:44.238Z,18.20
2019-05-23T20:20:14.485Z,18.20
2019-05-23T20:25:53.570Z,18.10
2019-05-23T20:28:42.373Z,18.10
2019-05-23T20:31:12.254Z,18.00
2019-05-23T20:33:41.963Z,18.00
2019-05-23T20:38:54.149Z,18.00
2019-05-23T20:41:24.763Z,17.90
2019-05-23T20:44:13.549Z,17.90
2019-05-23T20:46:43.345Z,17.90
2019-05-23T20:49:13.000Z,17.90
2019-05-23T20:54:45.198Z,17.80
2019-05-23T20:57:15.709Z,17.70
2019-05-23T21:02:45.099Z,17.60
2019-05-23T21:08:05.155Z,17.60
2019-05-23T21:16:26.081Z,17.40
2019-05-23T21:21:57.420Z,17.20
2019-05-23T21:25:07.807Z,17.20
2019-05-23T21:27:57.471Z,17.20
2019-05-23T21:33:38.339Z,17.10
2019-05-23T21:36:11.558Z,17.00
2019-05-23T21:38:46.267Z,17.00
2019-05-23T21:41:17.788Z,17.00
2019-05-23T21:43:50.573Z,16.90
2019-05-23T21:46:22.516Z,16.90
2019-05-23T21:48:56.395Z,16.90
2019-05-23T21:51:31.789Z,16.90
2019-05-23T21:54:02.644Z,16.90
2019-05-23T21:56:39.320Z,16.90
2019-05-23T21:59:12.263Z,16.80
2019-05-23T22:01:57.150Z,16.80
2019-05-23T22:04:34.079Z,16.80
2019-05-23T22:07:10.769Z,16.70
2019-05-23T22:09:40.752Z,16.70
2019-05-23T22:12:15.455Z,16.70
2019-05-23T22:14:47.850Z,16.70
2019-05-23T22:17:26.076Z,16.70
2019-05-23T22:19:59.648Z,16.70
2019-05-23T22:22:32.090Z,16.70
2019-05-23T22:25:02.574Z,16.70
2019-05-23T22:27:33.019Z,16.60
2019-05-23T22:30:06.646Z,16.70
2019-05-23T22:32:43.172Z,16.60
2019-05-23T22:35:18.587Z,16.60
2019-05-23T22:37:50.209Z,16.60
2019-05-23T22:40:20.337Z,16.60
2019-05-23T22:42:51.406Z,16.60
2019-05-23T22:45:27.581Z,16.50
2019-05-23T22:47:59.983Z,16.60
2019-05-23T22:50:30.370Z,16.60
2019-05-23T22:53:03.166Z,16.50
2019-05-23T22:55:34.909Z,16.50
2019-05-23T22:58:07.324Z,16.40
2019-05-23T23:00:40.779Z,16.40
2019-05-23T23:03:12.301Z,16.30
2019-05-23T23:05:42.418Z,16.30
2019-05-23T23:08:14.654Z,16.30
2019-05-23T23:10:50.178Z,16.20
2019-05-23T23:13:48.693Z,16.10
2019-05-23T23:16:31.001Z,16.10
2019-05-23T23:19:11.755Z,16.00
2019-05-23T23:22:03.577Z,15.90
2019-05-23T23:24:39.308Z,15.90
2019-05-23T23:27:10.618Z,15.80
2019-05-23T23:29:48.222Z,15.80
2019-05-23T23:32:27.176Z,15.70
2019-05-23T23:35:01.198Z,15.70
2019-05-23T23:37:35.272Z,15.70
2019-05-23T23:40:07.717Z,15.60
2019-05-23T23:42:40.417Z,15.60
2019-05-23T23:45:29.782Z,15.60
2019-05-23T23:48:20.268Z,15.60
2019-05-23T23:51:11.949Z,15.60
2019-05-23T23:54:02.121Z,15.60
2019-05-23T23:56:51.968Z,15.70
2019-05-23T23:59:22.298Z,15.70
